createdAt,value
2022-10-05T00:00:22.852Z,100828.28
2022-10-05T00:01:27.332Z,100821.66
2022-10-05T00:02:32.177Z,100827.44
2022-10-05T00:03:37.255Z,100821.09
2022-10-05T00:04:39.580Z,100826.63
2022-10-05T00:05:41.994Z,100824.69
2022-10-05T00:07:08.684Z,100828.50
2022-10-05T00:08:18.875Z,100820.50
2022-10-05T00:09:22.042Z,100816.66
2022-10-05T00:10:27.966Z,100818.59
2022-10-05T00:11:30.291Z,100807.56
2022-10-05T00:12:32.759Z,100814.13
2022-10-05T00:13:35.120Z,100807.78
2022-10-05T00:14:37.304Z,100819.56
2022-10-05T00:15:39.541Z,100819.31
2022-10-05T00:16:41.806Z,100816.78
2022-10-05T00:17:44.363Z,100814.84
2022-10-05T00:18:51.770Z,100818.47
2022-10-05T00:19:54.623Z,100811.28
2022-10-05T00:20:57.118Z,100807.66
2022-10-05T00:22:09.167Z,100805.75
2022-10-05T00:23:30.914Z,100807.09
2022-10-05T00:24:33.125Z,100810.66
2022-10-05T00:25:35.339Z,100809.84
2022-10-05T00:26:37.549Z,100809.00
2022-10-05T00:27:41.560Z,100811.78
2022-10-05T00:28:43.751Z,100810.09
2022-10-05T00:29:50.717Z,100804.81
2022-10-05T00:30:59.217Z,100809.47
2022-10-05T00:32:02.361Z,100813.31
2022-10-05T00:33:04.608Z,100810.34
2022-10-05T00:34:06.847Z,100803.13
2022-10-05T00:35:10.253Z,100805.91
2022-10-05T00:36:12.858Z,100805.91
2022-10-05T00:37:15.267Z,100806.97
2022-10-05T00:38:17.693Z,100806.97
2022-10-05T00:39:20.004Z,100807.22
2022-10-05T00:41:05.252Z,100802.28
2022-10-05T00:42:16.650Z,100795.94
2022-10-05T00:43:24.347Z,100803.59
2022-10-05T00:44:45.632Z,100802.78
2022-10-05T00:45:53.290Z,100807.47
2022-10-05T00:47:23.230Z,100811.06
2022-10-05T00:48:49.504Z,100805.78
2022-10-05T00:50:10.563Z,100804.34
2022-10-05T00:51:30.027Z,100805.19
2022-10-05T00:52:44.753Z,100807.13
2022-10-05T00:53:52.017Z,100808.19
2022-10-05T00:55:41.096Z,100816.22
2022-10-05T00:57:04.167Z,100816.72
2022-10-05T00:58:50.112Z,100822.94
2022-10-05T01:00:01.707Z,100816.34
2022-10-05T01:01:16.851Z,100815.28
2022-10-05T01:02:36.540Z,100823.53
2022-10-05T01:04:16.689Z,100818.28
2022-10-05T01:06:10.679Z,100811.06
2022-10-05T01:07:40.968Z,100808.31
2022-10-05T01:09:17.421Z,100812.97
2022-10-05T01:11:03.964Z,100811.31
2022-10-05T01:12:23.313Z,100805.19
2022-10-05T01:13:38.667Z,100807.97
2022-10-05T01:15:03.590Z,100802.44
2022-10-05T01:16:27.517Z,100797.19
2022-10-05T01:17:37.318Z,100801.00
2022-10-05T01:19:09.363Z,100803.75
2022-10-05T01:20:18.006Z,100802.94
2022-10-05T01:21:26.127Z,100807.59
2022-10-05T01:23:17.340Z,100813.34
2022-10-05T01:24:31.618Z,100809.78
2022-10-05T01:25:36.419Z,100812.53
2022-10-05T01:26:53.142Z,100810.84
2022-10-05T01:28:14.017Z,100799.00
2022-10-05T01:29:30.821Z,100797.31
2022-10-05T01:30:50.617Z,100796.69
2022-10-05T01:32:00.338Z,100784.00
2022-10-05T01:33:29.333Z,100785.31
2022-10-05T01:34:48.027Z,100783.41
2022-10-05T01:35:59.311Z,100781.97
2022-10-05T01:37:04.181Z,100786.63
2022-10-05T01:38:12.572Z,100778.59
2022-10-05T01:39:40.845Z,100786.06
2022-10-05T01:41:06.927Z,100778.59
2022-10-05T01:42:27.809Z,100776.09
2022-10-05T01:43:36.115Z,100777.16
2022-10-05T01:44:51.947Z,100780.16
2022-10-05T01:46:28.968Z,100785.69
2022-10-05T01:47:43.804Z,100786.50
2022-10-05T01:49:17.221Z,100781.25
2022-10-05T01:50:29.099Z,100774.91
2022-10-05T01:51:48.242Z,100776.84
2022-10-05T01:53:21.641Z,100771.78
2022-10-05T01:54:39.960Z,100759.94
2022-10-05T01:55:54.334Z,100759.09
2022-10-05T01:57:34.227Z,100770.34
2022-10-05T01:59:00.867Z,100773.09
2022-10-05T02:00:19.517Z,100776.94
2022-10-05T02:01:35.750Z,100773.34
2022-10-05T02:02:51.792Z,100770.84
2022-10-05T02:04:35.621Z,100768.34
2022-10-05T02:06:01.093Z,100765.78
2022-10-05T02:07:13.606Z,100775.75
2022-10-05T02:08:19.222Z,100774.91
2022-10-05T02:09:32.155Z,100777.69
2022-10-05T02:10:42.532Z,100779.56
2022-10-05T02:11:52.433Z,100798.03
2022-10-05T02:13:01.900Z,100803.56
2022-10-05T02:14:12.571Z,100791.91
2022-10-05T02:15:22.960Z,100790.03
2022-10-05T02:16:38.885Z,100790.03
2022-10-05T02:17:48.929Z,100794.66
2022-10-05T02:18:57.761Z,100789.16
2022-10-05T02:20:10.911Z,100788.09
2022-10-05T02:21:13.159Z,100783.66
2022-10-05T02:22:25.067Z,100784.75
2022-10-05T02:23:33.266Z,100785.81
2022-10-05T02:24:43.127Z,100790.25
2022-10-05T02:25:48.053Z,100784.97
2022-10-05T02:26:52.471Z,100781.38
2022-10-05T02:28:01.988Z,100785.22
2022-10-05T02:29:10.527Z,100788.81
2022-10-05T02:30:16.358Z,100780.78
2022-10-05T02:31:24.291Z,100787.97
2022-10-05T02:32:32.640Z,100779.69
2022-10-05T02:33:35.649Z,100791.59
2022-10-05T02:34:43.840Z,100787.97
2022-10-05T02:35:53.151Z,100790.72
2022-10-05T02:37:19.667Z,100790.72
2022-10-05T02:38:51.087Z,100790.72
2022-10-05T02:40:03.761Z,100783.78
2022-10-05T02:41:28.994Z,100780.19
2022-10-05T02:42:49.895Z,100781.25
2022-10-05T02:44:19.760Z,100776.59
2022-10-05T02:45:36.863Z,100768.34
2022-10-05T02:46:56.975Z,100771.31
2022-10-05T02:48:09.268Z,100768.56
2022-10-05T02:49:34.761Z,100766.91
2022-10-05T02:51:21.023Z,100764.16
2022-10-05T02:52:37.981Z,100761.59
2022-10-05T02:54:03.847Z,100765.47
2022-10-05T02:55:28.217Z,100775.63
2022-10-05T02:57:23.900Z,100768.44
2022-10-05T02:58:53.305Z,100761.28
2022-10-05T03:00:09.905Z,100762.59
2022-10-05T03:01:36.006Z,100771.94
2022-10-05T03:02:48.291Z,100758.41
2022-10-05T03:04:14.268Z,100763.91
2022-10-05T03:05:32.137Z,100764.13
2022-10-05T03:07:04.838Z,100763.53
2022-10-05T03:08:26.013Z,100746.66
2022-10-05T03:09:41.012Z,100753.84
2022-10-05T03:11:08.564Z,100763.16
2022-10-05T03:12:15.331Z,100761.50
2022-10-05T03:13:30.628Z,100750.69
2022-10-05T03:15:06.978Z,100761.50
2022-10-05T03:16:28.252Z,100759.78
2022-10-05T03:17:57.716Z,100760.00
2022-10-05T03:19:00.000Z,100752.84
2022-10-05T03:20:31.603Z,100753.94
2022-10-05T03:21:53.354Z,100761.34
2022-10-05T03:23:02.502Z,100761.34
2022-10-05T03:24:20.054Z,100759.44
2022-10-05T03:25:59.457Z,100769.59
2022-10-05T03:27:23.486Z,100765.19
2022-10-05T03:28:56.991Z,100765.19
2022-10-05T03:30:25.795Z,100771.75
2022-10-05T03:31:47.339Z,100775.59
2022-10-05T03:33:09.497Z,100773.91
2022-10-05T03:34:32.405Z,100776.66
2022-10-05T03:36:25.287Z,100776.91
2022-10-05T03:37:46.105Z,100781.59
2022-10-05T03:39:13.999Z,100781.59
2022-10-05T03:40:41.680Z,100781.59
2022-10-05T03:42:02.641Z,100780.13
2022-10-05T03:43:36.034Z,100777.59
2022-10-05T03:45:04.899Z,100778.47
2022-10-05T03:46:17.059Z,100774.84
2022-10-05T03:47:36.044Z,100779.53
2022-10-05T03:48:52.037Z,100772.34
2022-10-05T03:50:21.936Z,100781.47
2022-10-05T03:51:35.025Z,100777.00
2022-10-05T03:52:53.100Z,100778.91
2022-10-05T03:54:24.710Z,100774.25
2022-10-05T03:55:39.385Z,100777.25
2022-10-05T03:56:51.405Z,100788.03
2022-10-05T03:57:59.835Z,100775.34
2022-10-05T03:59:42.145Z,100776.41
2022-10-05T04:00:48.281Z,100781.91
2022-10-05T04:02:07.494Z,100771.97
2022-10-05T04:03:17.830Z,100781.91
2022-10-05T04:04:29.995Z,100781.09
2022-10-05T04:05:38.666Z,100782.16
2022-10-05T04:06:49.781Z,100778.78
2022-10-05T04:08:00.650Z,100788.97
2022-10-05T04:09:36.183Z,100791.72
2022-10-05T04:10:52.450Z,100798.31
2022-10-05T04:12:16.341Z,100788.38
2022-10-05T04:13:22.400Z,100789.44
2022-10-05T04:14:34.270Z,100792.22
2022-10-05T04:15:44.330Z,100791.34
2022-10-05T04:17:12.072Z,100790.53
2022-10-05T04:18:28.831Z,100799.84
2022-10-05T04:19:37.091Z,100794.59
2022-10-05T04:20:46.906Z,100793.75
2022-10-05T04:22:00.768Z,100797.59
2022-10-05T04:23:16.808Z,100786.81
2022-10-05T04:24:47.282Z,100784.06
2022-10-05T04:25:53.993Z,100792.53
2022-10-05T04:27:05.995Z,100782.63
2022-10-05T04:28:34.506Z,100776.50
2022-10-05T04:30:02.050Z,100785.56
2022-10-05T04:31:07.165Z,100785.81
2022-10-05T04:32:15.799Z,100775.03
2022-10-05T04:33:19.061Z,100782.47
2022-10-05T04:34:46.225Z,100778.88
2022-10-05T04:36:20.805Z,100778.28
2022-10-05T04:37:47.682Z,100782.09
2022-10-05T04:39:05.287Z,100784.25
2022-10-05T04:40:28.621Z,100786.16
2022-10-05T04:42:00.625Z,100791.66
2022-10-05T04:43:23.987Z,100781.72
2022-10-05T04:44:28.991Z,100792.97
2022-10-05T04:45:43.491Z,100791.28
2022-10-05T04:47:10.779Z,100783.03
2022-10-05T04:48:42.235Z,100799.53
2022-10-05T04:50:06.210Z,100797.88
2022-10-05T04:51:14.490Z,100797.03
2022-10-05T04:52:44.430Z,100790.69
2022-10-05T04:53:57.289Z,100792.84
2022-10-05T04:55:18.593Z,100794.75
2022-10-05T04:56:41.654Z,100792.00
2022-10-05T04:58:02.742Z,100798.59
2022-10-05T04:59:36.804Z,100792.22
2022-10-05T05:01:00.500Z,100793.31
2022-10-05T05:02:25.108Z,100788.63
2022-10-05T05:03:39.848Z,100794.38
2022-10-05T05:05:13.730Z,100788.25
2022-10-05T05:06:31.117Z,100785.50
2022-10-05T05:07:42.341Z,100789.31
2022-10-05T05:08:58.108Z,100781.94
2022-10-05T05:10:15.685Z,100784.91
2022-10-05T05:11:30.472Z,100796.75
2022-10-05T05:12:51.274Z,100793.19
2022-10-05T05:14:16.530Z,100790.44
2022-10-05T05:15:26.296Z,100798.88
2022-10-05T05:16:39.404Z,100795.06
2022-10-05T05:18:01.805Z,100800.00
2022-10-05T05:19:04.322Z,100795.31
2022-10-05T05:20:31.355Z,100794.69
2022-10-05T05:21:46.785Z,100792.19
2022-10-05T05:23:06.996Z,100795.56
2022-10-05T05:24:34.026Z,100799.38
2022-10-05T05:25:57.262Z,100794.09
2022-10-05T05:27:09.052Z,100797.09
2022-10-05T05:28:16.981Z,100805.34
2022-10-05T05:29:29.413Z,100797.94
2022-10-05T05:30:50.869Z,100800.66
2022-10-05T05:32:10.972Z,100801.50
2022-10-05T05:33:25.292Z,100807.00
2022-10-05T05:35:08.341Z,100807.88
2022-10-05T05:36:52.239Z,100810.63
2022-10-05T05:38:06.364Z,100810.38
2022-10-05T05:39:50.055Z,100807.63
2022-10-05T05:41:09.386Z,100813.13
2022-10-05T05:42:17.916Z,100809.53
2022-10-05T05:43:36.618Z,100818.38
2022-10-05T05:44:48.112Z,100816.72
2022-10-05T05:46:01.888Z,100811.19
2022-10-05T05:47:16.947Z,100809.31
2022-10-05T05:48:51.613Z,100811.00
2022-10-05T05:50:07.416Z,100811.00
2022-10-05T05:51:42.391Z,100808.25
2022-10-05T05:52:55.440Z,100817.09
2022-10-05T05:54:22.531Z,100807.16
2022-10-05T05:55:42.897Z,100810.75
2022-10-05T05:56:52.451Z,100813.50
2022-10-05T05:57:59.155Z,100811.59
2022-10-05T05:59:11.125Z,100808.59
2022-10-05T06:00:23.411Z,100816.25
2022-10-05T06:01:40.698Z,100812.44
2022-10-05T06:02:56.962Z,100814.09
2022-10-05T06:04:11.118Z,100814.72
2022-10-05T06:05:38.093Z,100813.66
2022-10-05T06:06:46.796Z,100815.09
2022-10-05T06:07:53.053Z,100805.97
2022-10-05T06:09:03.576Z,100816.53
2022-10-05T06:10:24.934Z,100806.13
2022-10-05T06:11:48.199Z,100818.81
2022-10-05T06:12:58.447Z,100808.44
2022-10-05T06:14:32.219Z,100818.97
2022-10-05T06:15:57.094Z,100808.78
2022-10-05T06:17:12.364Z,100812.75
2022-10-05T06:18:20.945Z,100811.44
2022-10-05T06:19:26.513Z,100810.97
2022-10-05T06:20:53.955Z,100814.09
2022-10-05T06:22:25.313Z,100813.63
2022-10-05T06:23:56.676Z,100802.97
2022-10-05T06:25:08.280Z,100801.44
2022-10-05T06:26:17.021Z,100802.38
2022-10-05T06:27:44.315Z,100806.13
2022-10-05T06:28:56.283Z,100805.41
2022-10-05T06:30:15.677Z,100814.44
2022-10-05T06:32:04.097Z,100805.81
2022-10-05T06:33:44.056Z,100814.09
2022-10-05T06:35:09.289Z,100806.91
2022-10-05T06:36:27.271Z,100810.38
2022-10-05T06:37:37.057Z,100819.50
2022-10-05T06:38:49.249Z,100810.59
2022-10-05T06:40:05.807Z,100806.38
2022-10-05T06:41:26.388Z,100806.63
2022-10-05T06:42:40.038Z,100808.75
2022-10-05T06:44:23.018Z,100795.75
2022-10-05T06:46:04.468Z,100798.00
2022-10-05T06:47:50.435Z,100800.47
2022-10-05T06:49:25.918Z,100793.59
2022-10-05T06:51:23.488Z,100791.78
2022-10-05T06:53:12.748Z,100785.69
2022-10-05T06:54:24.197Z,100788.13
2022-10-05T06:55:54.379Z,100789.44
2022-10-05T06:57:07.655Z,100780.84
2022-10-05T06:58:41.132Z,100795.38
2022-10-05T07:00:02.827Z,100783.47
2022-10-05T07:01:12.964Z,100777.22
2022-10-05T07:02:24.078Z,100780.97
2022-10-05T07:04:05.281Z,100781.44
2022-10-05T07:05:22.753Z,100780.47
2022-10-05T07:06:36.568Z,100783.09
2022-10-05T07:08:20.835Z,100782.97
2022-10-05T07:09:25.900Z,100784.81
2022-10-05T07:11:04.735Z,100786.81
2022-10-05T07:12:34.584Z,100786.16
2022-10-05T07:14:15.816Z,100774.63
2022-10-05T07:15:36.030Z,100780.03
2022-10-05T07:16:59.967Z,100784.56
2022-10-05T07:18:16.239Z,100782.16
2022-10-05T07:19:52.792Z,100778.31
2022-10-05T07:21:34.621Z,100774.25
2022-10-05T07:23:24.793Z,100780.44
2022-10-05T07:24:33.249Z,100779.38
2022-10-05T07:25:59.934Z,100772.22
2022-10-05T07:27:08.668Z,100763.38
2022-10-05T07:28:37.074Z,100775.09
2022-10-05T07:29:55.297Z,100768.47
2022-10-05T07:31:21.935Z,100761.59
2022-10-05T07:32:47.938Z,100771.63
2022-10-05T07:34:09.596Z,100765.25
2022-10-05T07:35:48.093Z,100762.78
2022-10-05T07:37:28.267Z,100758.91
2022-10-05T07:38:43.129Z,100759.47
2022-10-05T07:40:04.132Z,100764.22
2022-10-05T07:41:23.523Z,100764.47
2022-10-05T07:42:50.708Z,100759.50
2022-10-05T07:44:08.869Z,100758.09
2022-10-05T07:45:17.165Z,100750.03
2022-10-05T07:46:27.473Z,100750.31
2022-10-05T07:47:41.092Z,100753.09
2022-10-05T07:49:05.583Z,100758.06
2022-10-05T07:50:24.158Z,100753.88
2022-10-05T07:51:33.168Z,100762.78
2022-10-05T07:52:50.092Z,100752.72
2022-10-05T07:54:07.108Z,100758.84
2022-10-05T07:55:25.607Z,100762.97
2022-10-05T07:56:59.704Z,100748.22
2022-10-05T07:58:29.480Z,100755.13
2022-10-05T07:59:57.057Z,100751.22
2022-10-05T08:01:27.563Z,100756.22
2022-10-05T08:02:51.251Z,100744.22
2022-10-05T08:04:17.820Z,100755.81
2022-10-05T08:05:29.022Z,100749.41
2022-10-05T08:06:53.342Z,100771.06
2022-10-05T08:08:06.734Z,100764.63
2022-10-05T08:09:23.598Z,100753.19
2022-10-05T08:11:14.882Z,100759.81
2022-10-05T08:12:17.189Z,100754.19
2022-10-05T08:13:42.299Z,100751.38
2022-10-05T08:14:58.212Z,100744.38
2022-10-05T08:16:12.822Z,100749.06
2022-10-05T08:17:26.492Z,100748.19
2022-10-05T08:18:48.753Z,100742.59
2022-10-05T08:20:03.517Z,100758.44
2022-10-05T08:21:12.186Z,100738.63
2022-10-05T08:22:23.679Z,100742.53
2022-10-05T08:23:39.159Z,100747.50
2022-10-05T08:25:24.824Z,100743.84
2022-10-05T08:26:48.722Z,100736.25
2022-10-05T08:28:08.687Z,100737.63
2022-10-05T08:29:52.753Z,100732.81
2022-10-05T08:31:01.647Z,100734.75
2022-10-05T08:32:11.940Z,100742.50
2022-10-05T08:33:36.928Z,100733.56
2022-10-05T08:35:04.977Z,100738.56
2022-10-05T08:36:12.586Z,100729.06
2022-10-05T08:37:44.535Z,100729.59
2022-10-05T08:38:47.977Z,100727.34
2022-10-05T08:40:04.418Z,100730.66
2022-10-05T08:41:27.761Z,100723.94
2022-10-05T08:42:40.871Z,100732.25
2022-10-05T08:44:28.217Z,100726.69
2022-10-05T08:46:04.367Z,100731.69
2022-10-05T08:47:20.509Z,100733.56
2022-10-05T08:48:46.321Z,100718.50
2022-10-05T08:50:16.241Z,100719.00
2022-10-05T08:51:44.696Z,100724.31
2022-10-05T08:53:17.888Z,100715.41
2022-10-05T08:54:31.918Z,100714.59
2022-10-05T08:55:40.870Z,100712.59
2022-10-05T08:57:04.093Z,100714.28
2022-10-05T08:58:33.635Z,100717.06
2022-10-05T09:00:13.062Z,100719.88
2022-10-05T09:01:37.167Z,100714.28
2022-10-05T09:02:45.270Z,100716.47
2022-10-05T09:04:24.032Z,100705.84
2022-10-05T09:05:36.554Z,100707.50
2022-10-05T09:06:53.136Z,100703.06
2022-10-05T09:08:16.607Z,100715.59
2022-10-05T09:09:35.421Z,100713.59
2022-10-05T09:10:46.466Z,100716.09
2022-10-05T09:12:10.262Z,100709.94
2022-10-05T09:13:37.791Z,100703.44
2022-10-05T09:15:24.332Z,100695.84
2022-10-05T09:16:53.046Z,100697.44
2022-10-05T09:18:22.992Z,100697.38
2022-10-05T09:19:51.946Z,100698.69
2022-10-05T09:21:16.816Z,100699.47
2022-10-05T09:22:38.950Z,100698.22
2022-10-05T09:23:49.175Z,100698.69
2022-10-05T09:25:03.567Z,100690.25
2022-10-05T09:26:23.340Z,100693.28
2022-10-05T09:27:39.138Z,100699.06
2022-10-05T09:28:41.459Z,100690.09
2022-10-05T09:30:11.522Z,100690.31
2022-10-05T09:31:26.435Z,100680.41
2022-10-05T09:32:37.518Z,100683.41
2022-10-05T09:34:10.770Z,100686.66
2022-10-05T09:35:33.195Z,100689.06
2022-10-05T09:36:41.204Z,100694.28
2022-10-05T09:37:55.419Z,100692.22
2022-10-05T09:39:16.519Z,100694.66
2022-10-05T09:40:54.581Z,100696.44
2022-10-05T09:42:19.470Z,100699.69
2022-10-05T09:43:42.831Z,100686.41
2022-10-05T09:45:07.550Z,100689.66
2022-10-05T09:46:39.127Z,100691.50
2022-10-05T09:48:07.636Z,100687.78
2022-10-05T09:49:18.856Z,100685.19
2022-10-05T09:50:32.641Z,100691.00
2022-10-05T09:51:58.774Z,100683.94
2022-10-05T09:53:40.867Z,100687.28
2022-10-05T09:55:20.588Z,100676.31
2022-10-05T09:56:51.905Z,100680.41
2022-10-05T09:58:12.602Z,100673.19
2022-10-05T09:59:55.537Z,100672.88
2022-10-05T10:01:36.397Z,100682.09
2022-10-05T10:03:12.821Z,100682.09
2022-10-05T10:04:24.791Z,100675.66
2022-10-05T10:05:50.755Z,100678.78
2022-10-05T10:07:07.702Z,100670.69
2022-10-05T10:08:25.283Z,100673.50
2022-10-05T10:09:49.277Z,100678.25
2022-10-05T10:11:24.599Z,100678.25
2022-10-05T10:13:08.228Z,100667.59
2022-10-05T10:14:39.217Z,100664.78
2022-10-05T10:15:48.455Z,100673.19
2022-10-05T10:17:07.399Z,100665.59
2022-10-05T10:18:18.386Z,100668.41
2022-10-05T10:19:51.430Z,100660.00
2022-10-05T10:21:33.771Z,100656.06
2022-10-05T10:22:43.270Z,100658.88
2022-10-05T10:24:14.990Z,100663.94
2022-10-05T10:25:35.400Z,100653.91
2022-10-05T10:26:54.966Z,100651.09
2022-10-05T10:28:19.682Z,100651.91
2022-10-05T10:29:40.222Z,100653.28
2022-10-05T10:31:00.837Z,100657.19
2022-10-05T10:32:03.230Z,100657.19
2022-10-05T10:33:26.917Z,100646.81
2022-10-05T10:34:35.193Z,100647.66
2022-10-05T10:35:50.750Z,100649.34
2022-10-05T10:37:16.425Z,100645.38
2022-10-05T10:38:49.804Z,100643.09
2022-10-05T10:40:29.733Z,100648.69
2022-10-05T10:41:50.708Z,100645.91
2022-10-05T10:42:56.373Z,100639.97
2022-10-05T10:44:35.700Z,100638.03
2022-10-05T10:45:54.456Z,100642.50
2022-10-05T10:47:05.215Z,100642.22
2022-10-05T10:48:29.636Z,100634.63
2022-10-05T10:49:53.539Z,100637.97
2022-10-05T10:51:14.732Z,100640.75
2022-10-05T10:52:25.419Z,100637.63
2022-10-05T10:54:05.075Z,100647.38
2022-10-05T10:55:26.056Z,100643.94
2022-10-05T10:56:50.047Z,100640.50
2022-10-05T10:58:21.209Z,100639.06
2022-10-05T10:59:32.028Z,100642.91
2022-10-05T11:00:57.033Z,100640.28
2022-10-05T11:02:13.545Z,100640.19
2022-10-05T11:03:43.311Z,100641.53
2022-10-05T11:05:03.729Z,100636.13
2022-10-05T11:06:11.904Z,100634.34
2022-10-05T11:07:43.600Z,100628.13
2022-10-05T11:09:18.165Z,100626.34
2022-10-05T11:10:59.015Z,100625.72
2022-10-05T11:12:20.653Z,100636.31
2022-10-05T11:13:48.573Z,100633.38
2022-10-05T11:15:09.086Z,100620.69
2022-10-05T11:16:26.009Z,100626.81
2022-10-05T11:17:53.006Z,100622.56
2022-10-05T11:19:30.916Z,100621.59
2022-10-05T11:20:49.365Z,100629.38
2022-10-05T11:22:19.376Z,100620.63
2022-10-05T11:23:47.279Z,100615.25
2022-10-05T11:25:01.276Z,100618.25
2022-10-05T11:26:28.160Z,100614.00
2022-10-05T11:27:59.205Z,100616.16
2022-10-05T11:29:23.324Z,100622.28
2022-10-05T11:30:35.335Z,100618.31
2022-10-05T11:31:46.534Z,100620.50
2022-10-05T11:33:12.004Z,100610.94
2022-10-05T11:34:43.909Z,100615.38
2022-10-05T11:36:04.947Z,100610.28
2022-10-05T11:37:23.349Z,100609.97
2022-10-05T11:38:34.568Z,100608.00
2022-10-05T11:40:01.811Z,100608.81
2022-10-05T11:41:12.723Z,100606.53
2022-10-05T11:42:14.907Z,100606.22
2022-10-05T11:43:26.277Z,100603.09
2022-10-05T11:44:47.201Z,100603.09
2022-10-05T11:46:20.069Z,100599.13
2022-10-05T11:47:30.192Z,100595.47
2022-10-05T11:48:57.079Z,100599.13
2022-10-05T11:50:31.037Z,100594.34
2022-10-05T11:51:57.860Z,100597.16
2022-10-05T11:53:22.156Z,100596.00
2022-10-05T11:55:09.426Z,100591.22
2022-10-05T11:56:37.303Z,100592.88
2022-10-05T11:57:59.388Z,100592.88
2022-10-05T11:59:16.072Z,100591.72
2022-10-05T12:00:25.373Z,100590.06
2022-10-05T12:01:31.528Z,100590.59
2022-10-05T12:02:54.858Z,100594.22
2022-10-05T12:04:17.158Z,100582.19
2022-10-05T12:05:48.040Z,100591.06
2022-10-05T12:07:06.044Z,100589.13
2022-10-05T12:08:17.109Z,100589.59
2022-10-05T12:09:25.447Z,100584.00
2022-10-05T12:10:39.738Z,100584.19
2022-10-05T12:12:08.020Z,100582.19
2022-10-05T12:13:47.440Z,100579.91
2022-10-05T12:14:54.334Z,100579.59
2022-10-05T12:16:24.690Z,100581.56
2022-10-05T12:17:38.738Z,100579.91
2022-10-05T12:19:12.000Z,100575.13
2022-10-05T12:20:28.421Z,100577.63
2022-10-05T12:21:38.721Z,100572.00
2022-10-05T12:22:49.710Z,100563.59
2022-10-05T12:23:53.963Z,100565.56
2022-10-05T12:25:27.182Z,100565.56
2022-10-05T12:26:37.825Z,100563.28
2022-10-05T12:27:45.926Z,100566.88
2022-10-05T12:28:53.817Z,100560.13
2022-10-05T12:30:11.715Z,100554.53
2022-10-05T12:31:47.786Z,100557.81
2022-10-05T12:33:08.461Z,100560.00
2022-10-05T12:34:11.429Z,100561.66
2022-10-05T12:35:46.656Z,100556.84
2022-10-05T12:37:04.476Z,100551.25
2022-10-05T12:38:23.147Z,100547.78
2022-10-05T12:40:06.329Z,100544.69
2022-10-05T12:41:36.726Z,100544.34
2022-10-05T12:42:57.109Z,100545.16
2022-10-05T12:44:11.815Z,100538.72
2022-10-05T12:45:33.380Z,100541.53
2022-10-05T12:46:48.340Z,100539.56
2022-10-05T12:48:09.076Z,100544.00
2022-10-05T12:49:36.356Z,100542.03
2022-10-05T12:50:58.431Z,100544.00
2022-10-05T12:52:04.299Z,100548.47
2022-10-05T12:53:38.632Z,100544.84
2022-10-05T12:54:55.410Z,100544.53
2022-10-05T12:56:11.855Z,100541.72
2022-10-05T12:57:52.039Z,100543.34
2022-10-05T12:59:14.358Z,100534.13
2022-10-05T13:00:22.886Z,100537.75
2022-10-05T13:01:40.522Z,100546.16
2022-10-05T13:02:54.639Z,100539.72
2022-10-05T13:04:15.402Z,100542.53
2022-10-05T13:06:15.412Z,100545.69
2022-10-05T13:07:38.799Z,100540.88
2022-10-05T13:08:43.516Z,100538.91
2022-10-05T13:10:02.226Z,100537.25
2022-10-05T13:11:42.858Z,100545.69
2022-10-05T13:13:09.872Z,100548.47
2022-10-05T13:14:42.821Z,100538.91
2022-10-05T13:16:01.821Z,100545.34
2022-10-05T13:17:19.041Z,100540.56
2022-10-05T13:18:57.751Z,100544.19
2022-10-05T13:20:12.365Z,100535.78
2022-10-05T13:21:46.146Z,100545.88
2022-10-05T13:23:10.736Z,100545.88
2022-10-05T13:24:23.559Z,100544.69
2022-10-05T13:25:47.779Z,100549.16
2022-10-05T13:26:59.367Z,100541.59
2022-10-05T13:28:01.587Z,100544.38
2022-10-05T13:29:22.368Z,100538.44
2022-10-05T13:30:24.811Z,100539.59
2022-10-05T13:32:15.323Z,100539.25
2022-10-05T13:33:30.031Z,100545.09
2022-10-05T13:34:40.290Z,100546.22
2022-10-05T13:35:59.050Z,100544.25
2022-10-05T13:37:01.213Z,100536.66
2022-10-05T13:38:10.211Z,100538.00
2022-10-05T13:39:27.704Z,100531.88
2022-10-05T13:40:46.780Z,100539.16
2022-10-05T13:42:09.464Z,100541.63
2022-10-05T13:43:39.774Z,100542.47
2022-10-05T13:44:46.284Z,100535.69
2022-10-05T13:45:56.774Z,100543.78
2022-10-05T13:47:13.494Z,100539.00
2022-10-05T13:48:43.914Z,100543.94
2022-10-05T13:49:55.262Z,100539.19
2022-10-05T13:51:12.917Z,100543.66
2022-10-05T13:52:43.258Z,100538.03
2022-10-05T13:53:49.421Z,100535.22
2022-10-05T13:55:06.895Z,100534.91
2022-10-05T13:56:12.200Z,100530.94
2022-10-05T13:57:23.487Z,100530.09
2022-10-05T13:58:59.727Z,100534.22
2022-10-05T14:00:13.468Z,100526.31
2022-10-05T14:01:31.706Z,100533.91
2022-10-05T14:02:40.245Z,100526.31
2022-10-05T14:04:08.947Z,100522.34
2022-10-05T14:05:24.894Z,100525.66
2022-10-05T14:06:30.299Z,100523.66
2022-10-05T14:07:45.706Z,100518.03
2022-10-05T14:08:54.586Z,100516.91
2022-10-05T14:09:59.024Z,100526.97
2022-10-05T14:11:21.818Z,100521.03
2022-10-05T14:12:25.417Z,100524.69
2022-10-05T14:13:34.208Z,100524.34
2022-10-05T14:14:55.867Z,100516.75
2022-10-05T14:16:13.482Z,100521.22
2022-10-05T14:17:33.987Z,100520.88
2022-10-05T14:18:39.109Z,100525.34
2022-10-05T14:19:48.113Z,100528.16
2022-10-05T14:21:04.718Z,100531.78
2022-10-05T14:22:23.572Z,100527.81
2022-10-05T14:23:27.294Z,100525.00
2022-10-05T14:24:44.287Z,100525.84
2022-10-05T14:25:55.390Z,100524.69
2022-10-05T14:26:59.880Z,100528.66
2022-10-05T14:28:13.371Z,100521.88
2022-10-05T14:29:21.705Z,100525.53
2022-10-05T14:30:26.975Z,100528.66
2022-10-05T14:31:37.219Z,100528.66
2022-10-05T14:33:05.618Z,100521.06
2022-10-05T14:34:31.273Z,100521.06
2022-10-05T14:35:51.291Z,100525.84
2022-10-05T14:37:26.289Z,100522.19
2022-10-05T14:38:31.014Z,100523.06
2022-10-05T14:39:34.639Z,100522.19
2022-10-05T14:40:38.281Z,100525.00
2022-10-05T14:41:49.387Z,100517.72
2022-10-05T14:42:52.061Z,100521.72
2022-10-05T14:43:58.550Z,100520.88
2022-10-05T14:45:13.651Z,100522.88
2022-10-05T14:46:23.218Z,100524.84
2022-10-05T14:47:32.255Z,100517.59
2022-10-05T14:48:46.071Z,100517.59
2022-10-05T14:50:16.115Z,100516.25
2022-10-05T14:51:31.924Z,100513.44
2022-10-05T14:52:42.315Z,100516.56
2022-10-05T14:53:57.042Z,100512.94
2022-10-05T14:55:08.278Z,100515.22
2022-10-05T14:56:40.432Z,100510.81
2022-10-05T14:58:19.503Z,100511.94
2022-10-05T14:59:29.378Z,100513.91
2022-10-05T15:00:46.827Z,100516.72
2022-10-05T15:02:33.169Z,100517.38
2022-10-05T15:03:51.147Z,100513.25
2022-10-05T15:05:24.876Z,100506.81
2022-10-05T15:06:33.030Z,100508.28
2022-10-05T15:07:41.573Z,100507.78
2022-10-05T15:09:17.060Z,100508.94
2022-10-05T15:10:52.704Z,100511.25
2022-10-05T15:11:57.455Z,100500.66